createdAt,value
2022-07-29T00:00:02.371Z,21.05
2022-07-29T00:02:33.674Z,21.01
2022-07-29T00:05:03.256Z,20.98
2022-07-29T00:07:32.955Z,20.94
2022-07-29T00:10:00.794Z,20.93
2022-07-29T00:12:29.852Z,20.99
2022-07-29T00:14:58.736Z,20.91
2022-07-29T00:17:26.909Z,20.98
2022-07-29T00:19:54.745Z,20.90
2022-07-29T00:22:22.441Z,21.08
2022-07-29T00:24:51.412Z,21.15
2022-07-29T00:27:21.003Z,21.15
2022-07-29T00:29:49.688Z,20.93
2022-07-29T00:32:17.266Z,20.77
2022-07-29T00:35:03.381Z,20.80
2022-07-29T00:37:30.930Z,20.97
2022-07-29T00:39:58.335Z,20.96
2022-07-29T00:42:27.129Z,21.11
2022-07-29T00:44:58.206Z,21.20
2022-07-29T00:47:26.410Z,21.28
2022-07-29T00:49:54.604Z,21.23
2022-07-29T00:52:22.912Z,21.26
2022-07-29T00:54:50.882Z,21.21
2022-07-29T00:57:18.727Z,21.14
2022-07-29T00:59:47.380Z,21.11
2022-07-29T01:02:15.279Z,21.23
2022-07-29T01:04:43.139Z,21.20
2022-07-29T01:07:11.853Z,21.39
2022-07-29T01:09:45.895Z,21.28
2022-07-29T01:12:25.663Z,21.26
2022-07-29T01:14:55.230Z,21.38
2022-07-29T01:17:27.730Z,21.44
2022-07-29T01:20:02.279Z,21.47
2022-07-29T01:22:35.717Z,21.42
2022-07-29T01:25:42.459Z,21.27
2022-07-29T01:28:36.443Z,21.28
2022-07-29T01:31:07.659Z,21.13
2022-07-29T01:33:52.114Z,21.06
2022-07-29T01:36:35.055Z,21.08
2022-07-29T01:39:12.065Z,21.19
2022-07-29T01:41:58.850Z,21.17
2022-07-29T01:44:36.672Z,20.96
2022-07-29T01:47:13.656Z,20.82
2022-07-29T01:49:47.756Z,20.83
2022-07-29T01:52:39.070Z,20.93
2022-07-29T01:55:15.216Z,20.85
2022-07-29T01:57:48.815Z,20.94
2022-07-29T02:00:17.661Z,20.99
2022-07-29T02:02:48.298Z,21.00
2022-07-29T02:05:20.330Z,20.88
2022-07-29T02:07:49.661Z,20.75
2022-07-29T02:10:21.698Z,20.77
2022-07-29T02:12:56.090Z,20.91
2022-07-29T02:15:29.737Z,20.78
2022-07-29T02:18:09.240Z,20.82
2022-07-29T02:20:39.109Z,20.83
2022-07-29T02:23:08.657Z,20.81
2022-07-29T02:25:37.631Z,20.81
2022-07-29T02:28:08.373Z,20.73
2022-07-29T02:30:43.580Z,20.81
2022-07-29T02:33:15.701Z,20.75
2022-07-29T02:35:45.646Z,20.72
2022-07-29T02:38:35.331Z,20.67
2022-07-29T02:41:09.516Z,20.69
2022-07-29T02:43:38.275Z,20.75
2022-07-29T02:46:28.301Z,20.67
2022-07-29T02:49:10.942Z,20.73
2022-07-29T02:51:47.669Z,20.65
2022-07-29T02:54:43.491Z,20.69
2022-07-29T02:57:23.223Z,20.60
2022-07-29T02:59:55.656Z,20.53
2022-07-29T03:02:26.219Z,20.51
2022-07-29T03:04:58.349Z,20.63
2022-07-29T03:07:27.134Z,20.57
2022-07-29T03:09:57.106Z,20.49
2022-07-29T03:12:24.957Z,20.57
2022-07-29T03:14:54.959Z,20.52
2022-07-29T03:17:25.043Z,20.45
2022-07-29T03:19:53.789Z,20.45
2022-07-29T03:22:21.715Z,20.36
2022-07-29T03:24:49.234Z,20.37
2022-07-29T03:27:18.599Z,20.51
2022-07-29T03:29:50.044Z,20.55
2022-07-29T03:32:19.977Z,20.64
2022-07-29T03:34:51.507Z,20.65
2022-07-29T03:37:19.280Z,20.61
2022-07-29T03:39:48.527Z,20.72
2022-07-29T03:42:20.008Z,20.85
2022-07-29T03:44:50.807Z,20.76
2022-07-29T03:47:43.449Z,20.60
2022-07-29T03:50:16.640Z,20.57
2022-07-29T03:52:45.357Z,20.50
2022-07-29T03:55:14.619Z,20.44
2022-07-29T03:57:43.130Z,20.57
2022-07-29T04:00:11.883Z,20.49
2022-07-29T04:02:40.350Z,20.52
2022-07-29T04:05:14.345Z,20.46
2022-07-29T04:07:45.995Z,20.44
2022-07-29T04:10:17.233Z,20.52
2022-07-29T04:12:44.618Z,20.45
2022-07-29T04:15:12.517Z,20.49
2022-07-29T04:17:39.934Z,20.48
2022-07-29T04:20:08.118Z,20.47
2022-07-29T04:22:35.561Z,20.53
2022-07-29T04:25:04.201Z,20.47
2022-07-29T04:27:31.818Z,20.50
2022-07-29T04:29:59.192Z,20.71
2022-07-29T04:32:27.157Z,20.74
2022-07-29T04:34:54.584Z,20.85
2022-07-29T04:37:21.898Z,20.90
2022-07-29T04:39:49.288Z,21.12
2022-07-29T04:42:16.651Z,21.27
2022-07-29T04:44:44.745Z,21.28
2022-07-29T04:47:13.034Z,21.31
2022-07-29T04:49:40.536Z,21.33
2022-07-29T04:52:07.938Z,21.49
2022-07-29T04:54:35.343Z,21.52
2022-07-29T04:57:02.692Z,21.57
2022-07-29T04:59:30.374Z,21.60
2022-07-29T05:01:57.737Z,21.57
2022-07-29T05:04:25.188Z,21.60
2022-07-29T05:06:52.625Z,21.56
2022-07-29T05:09:19.941Z,21.67
2022-07-29T05:11:47.413Z,21.65
2022-07-29T05:14:15.116Z,21.73
2022-07-29T05:16:44.327Z,21.85
2022-07-29T05:19:14.402Z,21.86
2022-07-29T05:21:42.450Z,21.83
2022-07-29T05:24:09.750Z,21.86
2022-07-29T05:26:37.137Z,21.85
2022-07-29T05:29:04.497Z,21.89
2022-07-29T05:31:31.931Z,21.86
2022-07-29T05:33:59.296Z,21.85
2022-07-29T05:36:27.112Z,21.89
2022-07-29T05:38:54.489Z,21.93
2022-07-29T05:41:22.118Z,21.94
2022-07-29T05:43:49.486Z,22.08
2022-07-29T05:46:17.077Z,22.30
2022-07-29T05:48:44.513Z,22.18
2022-07-29T05:51:11.971Z,22.31
2022-07-29T05:53:39.305Z,22.47
2022-07-29T05:56:07.399Z,22.52
2022-07-29T05:58:34.777Z,22.59
2022-07-29T06:01:02.554Z,22.69
2022-07-29T06:03:30.033Z,22.69
2022-07-29T06:05:57.522Z,22.81
2022-07-29T06:08:24.850Z,22.89
2022-07-29T06:10:52.288Z,22.84
2022-07-29T06:13:21.875Z,22.80
2022-07-29T06:15:49.554Z,22.88
2022-07-29T06:18:16.965Z,22.80
2022-07-29T06:20:44.299Z,22.92
2022-07-29T06:23:11.717Z,22.90
2022-07-29T06:25:41.276Z,23.00
2022-07-29T06:28:08.718Z,23.05
2022-07-29T06:30:36.335Z,23.04
2022-07-29T06:33:03.981Z,23.15
2022-07-29T06:35:39.081Z,23.34
2022-07-29T06:38:31.461Z,23.37
2022-07-29T06:41:18.116Z,23.47
2022-07-29T06:43:52.465Z,23.51
2022-07-29T06:46:23.500Z,23.54
2022-07-29T06:48:53.128Z,23.61
2022-07-29T06:51:22.344Z,23.64
2022-07-29T06:54:00.120Z,23.72
2022-07-29T06:56:39.226Z,23.91
2022-07-29T06:59:10.113Z,23.92
2022-07-29T07:01:40.151Z,24.10
2022-07-29T07:04:09.985Z,24.16
2022-07-29T07:06:38.838Z,24.41
2022-07-29T07:09:06.557Z,24.48
2022-07-29T07:11:34.877Z,24.55
2022-07-29T07:14:14.499Z,24.63
2022-07-29T07:16:42.187Z,24.72
2022-07-29T07:19:09.441Z,24.68
2022-07-29T07:21:36.756Z,24.73
2022-07-29T07:24:04.479Z,24.66
2022-07-29T07:26:32.109Z,24.66
2022-07-29T07:29:01.272Z,24.75
2022-07-29T07:31:28.864Z,24.78
2022-07-29T07:33:56.312Z,24.95
2022-07-29T07:36:24.316Z,24.98
2022-07-29T07:38:51.538Z,25.22
2022-07-29T07:41:18.837Z,25.24
2022-07-29T07:43:46.304Z,25.27
2022-07-29T07:46:13.919Z,25.49
2022-07-29T07:48:41.716Z,25.43
2022-07-29T07:51:09.343Z,25.83
2022-07-29T07:53:36.749Z,25.73
2022-07-29T07:56:11.013Z,25.75
2022-07-29T07:58:39.824Z,25.92
2022-07-29T08:01:08.133Z,25.95
2022-07-29T08:03:36.046Z,26.42
2022-07-29T08:06:04.754Z,26.74
2022-07-29T08:08:32.390Z,26.49
2022-07-29T08:11:02.223Z,26.63
2022-07-29T08:13:33.526Z,26.84
2022-07-29T08:16:02.549Z,27.09
2022-07-29T08:18:30.799Z,27.30
2022-07-29T08:20:58.762Z,27.50
2022-07-29T08:23:32.940Z,27.54
2022-07-29T08:26:14.303Z,27.49
2022-07-29T08:28:46.679Z,27.51
2022-07-29T08:31:17.211Z,27.72
2022-07-29T08:33:45.538Z,27.89
2022-07-29T08:36:14.068Z,28.09
2022-07-29T08:38:41.518Z,28.28
2022-07-29T08:41:09.003Z,28.36
2022-07-29T08:43:38.416Z,28.38
2022-07-29T08:46:05.953Z,28.56
2022-07-29T08:48:33.934Z,28.54
2022-07-29T08:51:05.167Z,28.61
2022-07-29T08:53:33.251Z,28.60
2022-07-29T08:56:01.012Z,28.88
2022-07-29T08:58:33.169Z,28.99
2022-07-29T09:01:04.842Z,29.05
2022-07-29T09:03:38.343Z,29.17
2022-07-29T09:06:06.386Z,29.16
2022-07-29T09:08:34.579Z,29.16
2022-07-29T09:11:05.393Z,29.21
2022-07-29T09:13:33.212Z,28.93
2022-07-29T09:16:02.576Z,29.14
2022-07-29T09:18:41.425Z,29.30
2022-07-29T09:21:30.555Z,29.19
2022-07-29T09:24:10.230Z,29.51
2022-07-29T09:26:42.858Z,29.40
2022-07-29T09:29:10.534Z,29.56
2022-07-29T09:31:43.902Z,29.32
2022-07-29T09:34:12.682Z,29.75
2022-07-29T09:36:45.472Z,29.68
2022-07-29T09:39:13.916Z,29.50
2022-07-29T09:41:55.571Z,29.78
2022-07-29T09:44:24.585Z,29.71
2022-07-29T09:47:06.741Z,29.51
2022-07-29T09:50:00.795Z,29.77
2022-07-29T09:52:30.019Z,29.98
2022-07-29T09:55:08.429Z,30.23
2022-07-29T09:57:35.991Z,30.24
2022-07-29T10:00:08.129Z,30.34
2022-07-29T10:02:46.966Z,30.04
2022-07-29T10:05:22.553Z,30.44
2022-07-29T10:07:57.449Z,30.55
2022-07-29T10:10:26.389Z,30.49
2022-07-29T10:13:01.832Z,30.42
2022-07-29T10:15:41.704Z,30.68
2022-07-29T10:18:09.376Z,30.93
2022-07-29T10:20:36.890Z,30.86
2022-07-29T10:23:04.839Z,30.76
2022-07-29T10:25:32.700Z,30.64
2022-07-29T10:28:00.305Z,30.93
2022-07-29T10:30:28.402Z,31.23
2022-07-29T10:33:19.250Z,31.35
2022-07-29T10:35:58.682Z,31.30
2022-07-29T10:38:35.709Z,31.28
2022-07-29T10:41:27.270Z,30.87
2022-07-29T10:44:01.647Z,31.26
2022-07-29T10:46:35.516Z,31.07
2022-07-29T10:49:11.366Z,30.88
2022-07-29T10:52:01.886Z,30.89
2022-07-29T10:54:52.605Z,30.94
2022-07-29T10:57:53.994Z,31.11
2022-07-29T11:00:18.760Z,31.06
2022-07-29T11:02:53.030Z,31.15
2022-07-29T11:05:32.295Z,31.19
2022-07-29T11:08:19.605Z,31.71
2022-07-29T11:10:54.346Z,31.83
2022-07-29T11:17:00.308Z,31.28
2022-07-29T11:19:30.468Z,31.56
2022-07-29T11:21:59.269Z,31.61
2022-07-29T11:24:29.991Z,31.72
2022-07-29T11:30:04.825Z,31.74
2022-07-29T11:32:39.839Z,31.31
2022-07-29T11:35:38.394Z,31.54
2022-07-29T11:38:28.631Z,31.26
2022-07-29T11:41:25.212Z,31.48
2022-07-29T11:43:59.128Z,31.26
2022-07-29T11:46:53.917Z,31.45
2022-07-29T11:49:32.628Z,31.63
2022-07-29T11:52:05.595Z,31.74
2022-07-29T11:54:57.276Z,31.82
2022-07-29T11:57:35.965Z,31.82
2022-07-29T12:03:03.860Z,32.02
2022-07-29T12:05:38.470Z,31.69
2022-07-29T12:07:01.386Z,31.85
2022-07-29T12:08:23.643Z,31.51
2022-07-29T12:10:51.643Z,31.99
2022-07-29T12:13:21.410Z,32.31
2022-07-29T12:16:00.109Z,32.09
2022-07-29T12:18:29.037Z,32.47
2022-07-29T12:21:04.711Z,32.85
2022-07-29T12:23:35.763Z,32.90
2022-07-29T12:26:10.576Z,32.80
2022-07-29T12:28:40.072Z,32.76
2022-07-29T12:31:15.193Z,32.49
2022-07-29T12:34:05.052Z,32.57
2022-07-29T12:36:33.442Z,32.51
2022-07-29T12:39:01.170Z,32.46
2022-07-29T12:41:30.058Z,32.42
2022-07-29T12:43:57.852Z,32.40
2022-07-29T12:46:25.924Z,32.69
2022-07-29T12:48:58.359Z,32.44
2022-07-29T12:51:33.659Z,32.48
2022-07-29T12:54:04.096Z,32.42
2022-07-29T12:56:46.839Z,32.42
2022-07-29T12:59:18.754Z,32.72
2022-07-29T13:01:51.552Z,32.61
2022-07-29T13:04:33.832Z,32.85
2022-07-29T13:07:08.345Z,32.79
2022-07-29T13:09:43.690Z,32.43
2022-07-29T13:12:13.061Z,32.44
2022-07-29T13:14:45.632Z,32.77
2022-07-29T13:17:14.481Z,32.79
2022-07-29T13:19:53.169Z,32.75
2022-07-29T13:22:26.572Z,32.71
2022-07-29T13:25:04.676Z,32.78
2022-07-29T13:27:34.052Z,32.81
2022-07-29T13:30:03.036Z,32.22
2022-07-29T13:32:32.190Z,32.40
2022-07-29T13:35:05.777Z,32.69
2022-07-29T13:37:36.643Z,32.65
2022-07-29T13:40:05.151Z,32.74
2022-07-29T13:42:39.480Z,32.55
2022-07-29T13:45:08.308Z,32.76
2022-07-29T13:47:36.087Z,32.53
2022-07-29T13:50:06.768Z,32.82
2022-07-29T13:52:36.903Z,32.67
2022-07-29T13:55:09.243Z,32.67
2022-07-29T13:57:36.791Z,32.68
2022-07-29T14:00:05.227Z,32.72
2022-07-29T14:02:36.059Z,32.77
2022-07-29T14:05:08.313Z,32.75
2022-07-29T14:07:37.487Z,31.92
2022-07-29T14:10:05.836Z,32.31
2022-07-29T14:12:33.472Z,32.51
2022-07-29T14:15:01.280Z,32.39
2022-07-29T14:17:28.940Z,32.41
2022-07-29T14:19:56.345Z,32.38
2022-07-29T14:22:26.175Z,32.24
2022-07-29T14:24:54.045Z,32.18
2022-07-29T14:27:38.025Z,32.21
2022-07-29T14:30:07.383Z,32.21
2022-07-29T14:32:34.816Z,32.22
2022-07-29T14:35:02.403Z,32.21
2022-07-29T14:37:37.553Z,32.06
2022-07-29T14:40:10.212Z,32.01
2022-07-29T14:42:38.644Z,32.00
2022-07-29T14:45:07.971Z,32.04
2022-07-29T14:47:35.844Z,31.97
2022-07-29T14:50:04.209Z,31.77
2022-07-29T14:52:31.872Z,31.68
2022-07-29T14:54:59.493Z,31.53
2022-07-29T14:57:27.099Z,31.35
2022-07-29T14:59:54.664Z,31.21
2022-07-29T15:02:25.592Z,31.23
2022-07-29T15:04:59.214Z,31.10
2022-07-29T15:07:26.942Z,31.09
2022-07-29T15:09:58.061Z,30.94
2022-07-29T15:12:27.759Z,30.87
2022-07-29T15:14:56.072Z,30.92
2022-07-29T15:17:23.880Z,30.86
2022-07-29T15:19:51.417Z,30.93
2022-07-29T15:22:18.992Z,30.79
2022-07-29T15:24:59.880Z,30.85
2022-07-29T15:27:27.480Z,30.78
2022-07-29T15:29:54.834Z,30.71
2022-07-29T15:32:22.507Z,30.70
2022-07-29T15:34:52.664Z,30.73
2022-07-29T15:37:20.597Z,30.57
2022-07-29T15:39:48.103Z,30.60
2022-07-29T15:42:17.782Z,30.47
2022-07-29T15:44:45.362Z,30.33
2022-07-29T15:47:12.916Z,30.26
2022-07-29T15:49:46.549Z,30.45
2022-07-29T15:52:25.877Z,30.39
2022-07-29T15:54:56.203Z,30.22
2022-07-29T15:57:24.692Z,30.21
2022-07-29T15:59:54.333Z,30.29
2022-07-29T16:02:21.933Z,30.26
2022-07-29T16:04:51.504Z,30.11
2022-07-29T16:07:19.645Z,30.14
2022-07-29T16:09:52.780Z,30.02
2022-07-29T16:12:22.573Z,29.92
2022-07-29T16:14:51.280Z,30.04
2022-07-29T16:17:22.998Z,29.92
2022-07-29T16:19:50.723Z,29.42
2022-07-29T16:22:21.709Z,28.93
2022-07-29T16:24:49.442Z,28.99
2022-07-29T16:27:17.178Z,28.58
2022-07-29T16:29:47.947Z,28.41
2022-07-29T16:32:22.150Z,28.18
2022-07-29T16:34:50.211Z,27.85
2022-07-29T16:37:17.684Z,27.86
2022-07-29T16:39:46.212Z,27.84
2022-07-29T16:42:31.009Z,27.62
2022-07-29T16:45:04.584Z,27.31
2022-07-29T16:47:33.532Z,27.26
2022-07-29T16:50:03.888Z,27.15
2022-07-29T16:52:32.555Z,27.28
2022-07-29T16:54:59.869Z,27.18
2022-07-29T16:57:27.241Z,27.10
2022-07-29T16:59:54.628Z,27.08
2022-07-29T17:02:22.103Z,27.08
2022-07-29T17:04:49.661Z,26.99
2022-07-29T17:07:17.069Z,26.97
2022-07-29T17:09:44.404Z,26.96
2022-07-29T17:12:11.846Z,26.96
2022-07-29T17:14:39.351Z,26.88
2022-07-29T17:17:13.572Z,26.89
2022-07-29T17:19:43.441Z,26.96
2022-07-29T17:22:15.868Z,26.80
2022-07-29T17:24:47.547Z,26.69
2022-07-29T17:27:16.622Z,26.93
2022-07-29T17:29:44.646Z,27.03
2022-07-29T17:32:12.346Z,27.00
2022-07-29T17:34:40.899Z,26.53
2022-07-29T17:37:10.871Z,26.52
2022-07-29T17:39:41.154Z,26.43
2022-07-29T17:42:10.452Z,26.21
2022-07-29T17:44:38.586Z,26.07
2022-07-29T17:47:07.954Z,26.07
2022-07-29T17:49:44.136Z,25.91
2022-07-29T17:52:11.535Z,25.95
2022-07-29T17:54:38.879Z,26.02
2022-07-29T17:57:06.175Z,26.10
2022-07-29T17:59:33.522Z,26.08
2022-07-29T18:02:00.914Z,26.12
2022-07-29T18:04:29.134Z,26.00
2022-07-29T18:06:56.873Z,26.02
2022-07-29T18:09:25.633Z,26.09
2022-07-29T18:11:53.039Z,25.96
2022-07-29T18:14:29.201Z,25.85
2022-07-29T18:16:56.851Z,25.90
2022-07-29T18:19:24.715Z,25.80
2022-07-29T18:21:55.186Z,25.75
2022-07-29T18:24:27.390Z,25.79
2022-07-29T18:26:54.886Z,25.79
2022-07-29T18:29:22.300Z,25.73
2022-07-29T18:31:50.129Z,25.85
2022-07-29T18:34:17.782Z,25.66
2022-07-29T18:36:46.087Z,25.55
2022-07-29T18:39:20.788Z,25.60
2022-07-29T18:41:51.356Z,25.68
2022-07-29T18:44:21.837Z,25.71
2022-07-29T18:46:51.865Z,25.72
2022-07-29T18:49:20.519Z,25.60
2022-07-29T18:51:48.637Z,25.57
2022-07-29T18:54:20.053Z,25.60
2022-07-29T18:56:47.562Z,25.46
2022-07-29T18:59:17.051Z,25.49
2022-07-29T19:01:44.629Z,25.56
2022-07-29T19:04:12.335Z,25.59
2022-07-29T19:06:40.804Z,25.59
2022-07-29T19:09:11.137Z,25.54
2022-07-29T19:11:38.981Z,25.52
2022-07-29T19:14:06.735Z,25.74
2022-07-29T19:16:34.422Z,25.73
2022-07-29T19:19:01.846Z,25.68
2022-07-29T19:21:29.714Z,25.38
2022-07-29T19:24:00.111Z,25.04
2022-07-29T19:26:36.283Z,24.73
2022-07-29T19:29:04.358Z,24.57
2022-07-29T19:31:31.813Z,24.33
2022-07-29T19:33:59.332Z,24.24
2022-07-29T19:36:27.405Z,24.20
2022-07-29T19:38:54.862Z,24.26
2022-07-29T19:41:22.299Z,24.24
2022-07-29T19:43:52.854Z,24.17
2022-07-29T19:46:21.520Z,24.20
2022-07-29T19:48:49.180Z,24.28
2022-07-29T19:51:17.456Z,24.30
2022-07-29T19:53:44.774Z,24.17
2022-07-29T19:56:12.115Z,23.97
2022-07-29T19:58:40.789Z,23.87
2022-07-29T20:01:10.217Z,23.67
2022-07-29T20:03:40.027Z,23.52
2022-07-29T20:06:08.428Z,23.52
2022-07-29T20:08:36.393Z,23.47
2022-07-29T20:11:03.836Z,23.41
2022-07-29T20:13:33.142Z,23.47
2022-07-29T20:16:02.081Z,23.37
2022-07-29T20:18:29.561Z,23.25
2022-07-29T20:20:57.614Z,23.02
2022-07-29T20:23:25.166Z,23.22
2022-07-29T20:25:52.689Z,23.31
2022-07-29T20:28:22.610Z,23.41
2022-07-29T20:30:50.016Z,23.61
2022-07-29T20:33:17.561Z,23.41
2022-07-29T20:35:44.862Z,23.10
2022-07-29T20:38:15.135Z,23.04
2022-07-29T20:40:45.697Z,23.20
2022-07-29T20:43:13.284Z,23.10
2022-07-29T20:45:40.646Z,22.89
2022-07-29T20:48:08.165Z,22.68
2022-07-29T20:50:35.928Z,22.59
2022-07-29T20:53:03.287Z,22.36
2022-07-29T20:55:32.119Z,22.26
2022-07-29T20:57:59.522Z,22.20
2022-07-29T21:00:27.059Z,22.19
2022-07-29T21:02:54.597Z,22.25
2022-07-29T21:05:22.033Z,22.24
2022-07-29T21:07:49.410Z,22.26
2022-07-29T21:10:18.320Z,22.33
2022-07-29T21:12:46.596Z,22.37
2022-07-29T21:15:20.562Z,22.28
2022-07-29T21:17:48.576Z,22.29
2022-07-29T21:20:16.323Z,21.99
2022-07-29T21:22:44.156Z,21.94
2022-07-29T21:25:12.052Z,21.72
2022-07-29T21:27:58.043Z,21.65
2022-07-29T21:30:25.411Z,21.56
2022-07-29T21:32:52.759Z,21.46
2022-07-29T21:36:01.944Z,21.37
2022-07-29T21:38:07.563Z,21.39
2022-07-29T21:40:34.866Z,21.34
2022-07-29T21:43:02.366Z,21.38
2022-07-29T21:45:30.418Z,21.36
2022-07-29T21:47:57.726Z,21.21
2022-07-29T21:50:25.206Z,21.04
2022-07-29T21:52:52.662Z,21.04
2022-07-29T21:55:20.625Z,20.95
2022-07-29T21:57:49.911Z,21.00
2022-07-29T22:00:17.253Z,21.08
2022-07-29T22:02:45.476Z,21.23
2022-07-29T22:05:13.492Z,21.23
2022-07-29T22:07:55.568Z,21.18
2022-07-29T22:10:25.877Z,21.19
2022-07-29T22:12:55.069Z,21.24
2022-07-29T22:15:23.125Z,21.31
2022-07-29T22:17:50.909Z,21.30
2022-07-29T22:20:18.383Z,21.38
2022-07-29T22:22:46.704Z,21.37
2022-07-29T22:25:14.391Z,21.29
2022-07-29T22:27:41.740Z,21.42
2022-07-29T22:30:09.887Z,21.32
2022-07-29T22:32:37.271Z,21.31
2022-07-29T22:35:05.092Z,21.51
2022-07-29T22:37:32.487Z,21.58
2022-07-29T22:39:59.906Z,21.47
2022-07-29T22:42:27.225Z,21.34
2022-07-29T22:44:54.698Z,21.15
2022-07-29T22:47:38.851Z,21.06
2022-07-29T22:50:09.753Z,20.87
2022-07-29T22:52:37.214Z,20.73
2022-07-29T22:55:05.002Z,20.62
2022-07-29T22:57:32.483Z,20.65
2022-07-29T23:00:02.518Z,20.55
2022-07-29T23:02:30.094Z,20.65
2022-07-29T23:04:57.498Z,20.72
2022-07-29T23:07:25.041Z,20.75
2022-07-29T23:09:52.573Z,20.71
2022-07-29T23:12:23.203Z,20.62
2022-07-29T23:14:50.682Z,20.44
2022-07-29T23:17:18.304Z,20.29
2022-07-29T23:19:45.848Z,20.18
2022-07-29T23:22:13.254Z,20.14
2022-07-29T23:24:41.200Z,19.97
2022-07-29T23:27:08.666Z,20.09
2022-07-29T23:29:36.925Z,20.09
2022-07-29T23:32:04.914Z,20.04
2022-07-29T23:34:32.702Z,20.17
2022-07-29T23:37:00.554Z,20.05
2022-07-29T23:39:28.217Z,19.99
2022-07-29T23:41:56.256Z,20.06
2022-07-29T23:44:23.649Z,19.82
2022-07-29T23:46:51.412Z,19.79
2022-07-29T23:49:19.152Z,19.81
2022-07-29T23:51:46.828Z,19.94
2022-07-29T23:54:14.503Z,19.91
2022-07-29T23:56:41.961Z,19.86
2022-07-29T23:59:09.457Z,19.88
